sensor_id;sensor_type;location;lat;lon;timestamp;P1;durP1;ratioP1;P2;durP2;ratioP2
5730;SDS011;2890;51.950;7.668;2022-07-23T00:00:13;7.32;;;4.65;;
5730;SDS011;2890;51.950;7.668;2022-07-23T00:02:40;7.78;;;5.13;;
5730;SDS011;2890;51.950;7.668;2022-07-23T00:05:08;8.35;;;5.70;;
5730;SDS011;2890;51.950;7.668;2022-07-23T00:07:35;9.75;;;5.45;;
5730;SDS011;2890;51.950;7.668;2022-07-23T00:10:04;10.88;;;5.15;;
5730;SDS011;2890;51.950;7.668;2022-07-23T00:12:33;20.33;;;6.53;;
5730;SDS011;2890;51.950;7.668;2022-07-23T00:15:00;32.22;;;7.85;;
5730;SDS011;2890;51.950;7.668;2022-07-23T00:17:27;20.38;;;7.28;;
5730;SDS011;2890;51.950;7.668;2022-07-23T00:19:54;23.92;;;7.03;;
5730;SDS011;2890;51.950;7.668;2022-07-23T00:22:21;36.67;;;8.88;;
5730;SDS011;2890;51.950;7.668;2022-07-23T00:24:48;30.92;;;8.98;;
5730;SDS011;2890;51.950;7.668;2022-07-23T00:27:17;27.67;;;8.52;;
5730;SDS011;2890;51.950;7.668;2022-07-23T00:29:44;39.25;;;9.13;;
5730;SDS011;2890;51.950;7.668;2022-07-23T00:32:11;22.10;;;8.27;;
5730;SDS011;2890;51.950;7.668;2022-07-23T00:34:38;13.20;;;7.50;;
5730;SDS011;2890;51.950;7.668;2022-07-23T00:37:05;14.00;;;8.38;;
5730;SDS011;2890;51.950;7.668;2022-07-23T00:39:32;30.15;;;9.27;;
5730;SDS011;2890;51.950;7.668;2022-07-23T00:41:59;15.48;;;7.90;;
5730;SDS011;2890;51.950;7.668;2022-07-23T00:44:28;16.98;;;8.32;;
5730;SDS011;2890;51.950;7.668;2022-07-23T00:46:56;11.98;;;8.07;;
5730;SDS011;2890;51.950;7.668;2022-07-23T00:49:24;11.68;;;8.70;;
5730;SDS011;2890;51.950;7.668;2022-07-23T00:51:51;12.57;;;8.30;;
5730;SDS011;2890;51.950;7.668;2022-07-23T00:54:19;16.13;;;9.05;;
5730;SDS011;2890;51.950;7.668;2022-07-23T00:56:46;16.20;;;9.57;;
5730;SDS011;2890;51.950;7.668;2022-07-23T00:59:14;12.63;;;8.52;;
5730;SDS011;2890;51.950;7.668;2022-07-23T01:01:42;15.00;;;8.63;;
5730;SDS011;2890;51.950;7.668;2022-07-23T01:04:11;12.80;;;8.97;;
5730;SDS011;2890;51.950;7.668;2022-07-23T01:06:40;11.55;;;8.35;;
5730;SDS011;2890;51.950;7.668;2022-07-23T01:09:07;13.15;;;9.15;;
5730;SDS011;2890;51.950;7.668;2022-07-23T01:11:35;12.13;;;9.38;;
5730;SDS011;2890;51.950;7.668;2022-07-23T01:14:09;13.15;;;8.82;;
5730;SDS011;2890;51.950;7.668;2022-07-23T01:16:36;14.60;;;9.00;;
5730;SDS011;2890;51.950;7.668;2022-07-23T01:19:04;13.02;;;10.23;;
5730;SDS011;2890;51.950;7.668;2022-07-23T01:21:32;11.95;;;9.63;;
5730;SDS011;2890;51.950;7.668;2022-07-23T01:24:02;12.07;;;9.20;;
5730;SDS011;2890;51.950;7.668;2022-07-23T01:26:30;13.65;;;9.60;;
5730;SDS011;2890;51.950;7.668;2022-07-23T01:28:57;10.70;;;9.55;;
5730;SDS011;2890;51.950;7.668;2022-07-23T01:31:24;14.37;;;9.67;;
5730;SDS011;2890;51.950;7.668;2022-07-23T01:33:51;11.88;;;9.90;;
5730;SDS011;2890;51.950;7.668;2022-07-23T01:36:18;15.30;;;9.43;;
5730;SDS011;2890;51.950;7.668;2022-07-23T01:38:45;15.57;;;10.40;;
5730;SDS011;2890;51.950;7.668;2022-07-23T01:41:14;13.55;;;9.30;;
5730;SDS011;2890;51.950;7.668;2022-07-23T01:43:41;13.80;;;9.60;;
5730;SDS011;2890;51.950;7.668;2022-07-23T01:46:08;10.82;;;8.73;;
5730;SDS011;2890;51.950;7.668;2022-07-23T01:48:35;12.20;;;9.75;;
5730;SDS011;2890;51.950;7.668;2022-07-23T01:51:02;15.48;;;10.18;;
5730;SDS011;2890;51.950;7.668;2022-07-23T01:53:29;12.05;;;9.70;;
5730;SDS011;2890;51.950;7.668;2022-07-23T01:55:57;13.20;;;10.50;;
5730;SDS011;2890;51.950;7.668;2022-07-23T01:58:25;12.80;;;9.15;;
5730;SDS011;2890;51.950;7.668;2022-07-23T02:00:52;13.70;;;10.23;;
5730;SDS011;2890;51.950;7.668;2022-07-23T02:03:19;13.67;;;9.77;;
5730;SDS011;2890;51.950;7.668;2022-07-23T02:05:47;12.35;;;9.93;;
5730;SDS011;2890;51.950;7.668;2022-07-23T02:08:14;17.98;;;10.05;;
5730;SDS011;2890;51.950;7.668;2022-07-23T02:10:41;16.10;;;11.15;;
5730;SDS011;2890;51.950;7.668;2022-07-23T02:13:08;12.55;;;10.48;;
5730;SDS011;2890;51.950;7.668;2022-07-23T02:15:37;16.27;;;10.13;;
5730;SDS011;2890;51.950;7.668;2022-07-23T02:18:04;13.00;;;9.93;;
5730;SDS011;2890;51.950;7.668;2022-07-23T02:20:33;15.70;;;10.93;;
5730;SDS011;2890;51.950;7.668;2022-07-23T02:23:03;14.27;;;10.07;;
5730;SDS011;2890;51.950;7.668;2022-07-23T02:25:30;16.30;;;10.45;;
5730;SDS011;2890;51.950;7.668;2022-07-23T02:27:57;14.30;;;10.30;;
5730;SDS011;2890;51.950;7.668;2022-07-23T02:30:24;14.40;;;10.35;;
5730;SDS011;2890;51.950;7.668;2022-07-23T02:32:53;16.45;;;10.63;;
5730;SDS011;2890;51.950;7.668;2022-07-23T02:35:20;15.23;;;10.88;;
5730;SDS011;2890;51.950;7.668;2022-07-23T02:37:47;12.30;;;10.27;;
5730;SDS011;2890;51.950;7.668;2022-07-23T02:40:14;13.35;;;9.95;;
5730;SDS011;2890;51.950;7.668;2022-07-23T02:42:41;14.30;;;9.77;;
5730;SDS011;2890;51.950;7.668;2022-07-23T02:45:08;12.53;;;9.37;;
5730;SDS011;2890;51.950;7.668;2022-07-23T02:47:36;13.13;;;9.47;;
5730;SDS011;2890;51.950;7.668;2022-07-23T02:50:05;12.47;;;10.83;;
5730;SDS011;2890;51.950;7.668;2022-07-23T02:52:32;17.35;;;10.43;;
5730;SDS011;2890;51.950;7.668;2022-07-23T02:54:59;13.03;;;10.00;;
5730;SDS011;2890;51.950;7.668;2022-07-23T02:57:26;17.07;;;10.53;;
5730;SDS011;2890;51.950;7.668;2022-07-23T02:59:53;16.60;;;10.65;;
5730;SDS011;2890;51.950;7.668;2022-07-23T03:02:20;13.30;;;9.47;;
5730;SDS011;2890;51.950;7.668;2022-07-23T03:04:48;14.10;;;9.68;;
5730;SDS011;2890;51.950;7.668;2022-07-23T03:07:17;10.73;;;9.50;;
5730;SDS011;2890;51.950;7.668;2022-07-23T03:09:44;16.40;;;10.57;;
5730;SDS011;2890;51.950;7.668;2022-07-23T03:12:11;13.17;;;9.43;;
5730;SDS011;2890;51.950;7.668;2022-07-23T03:14:38;17.45;;;10.23;;
5730;SDS011;2890;51.950;7.668;2022-07-23T03:17:05;14.25;;;10.88;;
5730;SDS011;2890;51.950;7.668;2022-07-23T03:19:33;14.33;;;10.73;;
5730;SDS011;2890;51.950;7.668;2022-07-23T03:22:00;16.65;;;10.82;;
5730;SDS011;2890;51.950;7.668;2022-07-23T03:24:28;17.67;;;10.67;;
5730;SDS011;2890;51.950;7.668;2022-07-23T03:27:09;16.33;;;10.23;;
5730;SDS011;2890;51.950;7.668;2022-07-23T03:29:36;13.80;;;9.80;;
5730;SDS011;2890;51.950;7.668;2022-07-23T03:32:04;15.00;;;10.30;;
5730;SDS011;2890;51.950;7.668;2022-07-23T03:34:31;17.02;;;10.70;;
5730;SDS011;2890;51.950;7.668;2022-07-23T03:36:58;16.52;;;11.00;;
5730;SDS011;2890;51.950;7.668;2022-07-23T03:39:25;18.02;;;10.77;;
5730;SDS011;2890;51.950;7.668;2022-07-23T03:41:54;15.20;;;10.90;;
5730;SDS011;2890;51.950;7.668;2022-07-23T03:44:21;13.25;;;10.50;;
5730;SDS011;2890;51.950;7.668;2022-07-23T03:46:48;12.37;;;9.97;;
5730;SDS011;2890;51.950;7.668;2022-07-23T03:49:15;11.60;;;9.40;;
5730;SDS011;2890;51.950;7.668;2022-07-23T03:51:42;14.43;;;10.05;;
5730;SDS011;2890;51.950;7.668;2022-07-23T03:54:09;13.47;;;9.53;;
5730;SDS011;2890;51.950;7.668;2022-07-23T03:56:36;13.50;;;10.00;;
5730;SDS011;2890;51.950;7.668;2022-07-23T03:59:05;14.70;;;10.87;;
5730;SDS011;2890;51.950;7.668;2022-07-23T04:01:32;14.40;;;10.80;;
5730;SDS011;2890;51.950;7.668;2022-07-23T04:03:59;13.93;;;9.53;;
5730;SDS011;2890;51.950;7.668;2022-07-23T04:06:26;12.13;;;9.50;;
5730;SDS011;2890;51.950;7.668;2022-07-23T04:08:53;13.70;;;9.03;;
5730;SDS011;2890;51.950;7.668;2022-07-23T04:11:20;10.68;;;9.60;;
5730;SDS011;2890;51.950;7.668;2022-07-23T04:13:47;13.70;;;9.23;;
5730;SDS011;2890;51.950;7.668;2022-07-23T04:16:16;11.90;;;9.70;;
5730;SDS011;2890;51.950;7.668;2022-07-23T04:18:43;11.05;;;9.25;;
5730;SDS011;2890;51.950;7.668;2022-07-23T04:21:10;14.33;;;9.63;;
5730;SDS011;2890;51.950;7.668;2022-07-23T04:23:37;13.43;;;9.30;;
5730;SDS011;2890;51.950;7.668;2022-07-23T04:26:04;11.43;;;9.13;;
5730;SDS011;2890;51.950;7.668;2022-07-23T04:28:31;12.20;;;8.87;;
5730;SDS011;2890;51.950;7.668;2022-07-23T04:30:58;12.30;;;8.95;;
5730;SDS011;2890;51.950;7.668;2022-07-23T04:33:27;9.50;;;8.40;;
5730;SDS011;2890;51.950;7.668;2022-07-23T04:35:54;11.05;;;8.48;;
5730;SDS011;2890;51.950;7.668;2022-07-23T04:38:21;11.77;;;9.20;;
5730;SDS011;2890;51.950;7.668;2022-07-23T04:40:48;12.60;;;9.23;;
5730;SDS011;2890;51.950;7.668;2022-07-23T04:43:15;12.17;;;9.50;;
5730;SDS011;2890;51.950;7.668;2022-07-23T04:45:42;12.90;;;9.63;;
5730;SDS011;2890;51.950;7.668;2022-07-23T04:48:09;15.25;;;9.32;;
5730;SDS011;2890;51.950;7.668;2022-07-23T04:50:38;14.00;;;9.73;;
5730;SDS011;2890;51.950;7.668;2022-07-23T04:53:05;14.32;;;9.88;;
5730;SDS011;2890;51.950;7.668;2022-07-23T04:55:32;11.68;;;8.63;;
5730;SDS011;2890;51.950;7.668;2022-07-23T04:57:59;13.60;;;9.40;;
5730;SDS011;2890;51.950;7.668;2022-07-23T05:00:26;13.30;;;9.70;;
5730;SDS011;2890;51.950;7.668;2022-07-23T05:02:53;11.37;;;9.50;;
5730;SDS011;2890;51.950;7.668;2022-07-23T05:05:20;12.98;;;10.43;;
5730;SDS011;2890;51.950;7.668;2022-07-23T05:07:49;11.13;;;9.30;;
5730;SDS011;2890;51.950;7.668;2022-07-23T05:10:16;11.82;;;10.40;;
5730;SDS011;2890;51.950;7.668;2022-07-23T05:12:43;15.45;;;9.68;;
5730;SDS011;2890;51.950;7.668;2022-07-23T05:15:10;14.97;;;9.93;;
5730;SDS011;2890;51.950;7.668;2022-07-23T05:17:37;12.00;;;10.18;;
5730;SDS011;2890;51.950;7.668;2022-07-23T05:20:04;19.37;;;9.87;;
5730;SDS011;2890;51.950;7.668;2022-07-23T05:22:32;14.20;;;9.40;;
5730;SDS011;2890;51.950;7.668;2022-07-23T05:25:00;14.57;;;10.32;;
5730;SDS011;2890;51.950;7.668;2022-07-23T05:27:27;14.25;;;10.50;;
5730;SDS011;2890;51.950;7.668;2022-07-23T05:29:54;14.80;;;10.27;;
5730;SDS011;2890;51.950;7.668;2022-07-23T05:32:22;12.93;;;10.18;;
5730;SDS011;2890;51.950;7.668;2022-07-23T05:34:49;11.68;;;9.80;;
5730;SDS011;2890;51.950;7.668;2022-07-23T05:37:16;12.65;;;9.90;;
5730;SDS011;2890;51.950;7.668;2022-07-23T05:39:44;13.85;;;9.93;;
5730;SDS011;2890;51.950;7.668;2022-07-23T05:42:12;13.95;;;10.48;;
5730;SDS011;2890;51.950;7.668;2022-07-23T05:44:39;12.98;;;9.98;;
5730;SDS011;2890;51.950;7.668;2022-07-23T05:47:06;19.35;;;10.63;;
5730;SDS011;2890;51.950;7.668;2022-07-23T05:49:33;15.00;;;10.20;;
5730;SDS011;2890;51.950;7.668;2022-07-23T05:52:03;14.63;;;10.80;;
5730;SDS011;2890;51.950;7.668;2022-07-23T05:54:30;13.15;;;10.43;;
5730;SDS011;2890;51.950;7.668;2022-07-23T05:56:57;13.43;;;8.82;;
5730;SDS011;2890;51.950;7.668;2022-07-23T05:59:25;14.40;;;9.23;;
5730;SDS011;2890;51.950;7.668;2022-07-23T06:01:52;11.52;;;9.77;;
5730;SDS011;2890;51.950;7.668;2022-07-23T06:04:19;13.07;;;9.77;;
5730;SDS011;2890;51.950;7.668;2022-07-23T06:06:46;11.07;;;9.13;;
5730;SDS011;2890;51.950;7.668;2022-07-23T06:09:13;12.05;;;8.95;;
5730;SDS011;2890;51.950;7.668;2022-07-23T06:11:40;11.05;;;8.48;;
5730;SDS011;2890;51.950;7.668;2022-07-23T06:14:07;12.88;;;8.00;;
5730;SDS011;2890;51.950;7.668;2022-07-23T06:16:36;11.90;;;8.60;;
5730;SDS011;2890;51.950;7.668;2022-07-23T06:19:03;12.10;;;8.55;;
5730;SDS011;2890;51.950;7.668;2022-07-23T06:21:30;9.90;;;7.90;;
5730;SDS011;2890;51.950;7.668;2022-07-23T06:23:57;7.80;;;7.00;;
5730;SDS011;2890;51.950;7.668;2022-07-23T06:26:24;9.02;;;7.35;;
5730;SDS011;2890;51.950;7.668;2022-07-23T06:28:51;8.55;;;6.40;;
5730;SDS011;2890;51.950;7.668;2022-07-23T06:31:18;8.55;;;6.28;;
5730;SDS011;2890;51.950;7.668;2022-07-23T06:33:46;8.05;;;5.63;;
5730;SDS011;2890;51.950;7.668;2022-07-23T06:36:13;9.05;;;6.03;;
5730;SDS011;2890;51.950;7.668;2022-07-23T06:38:40;7.72;;;5.85;;
5730;SDS011;2890;51.950;7.668;2022-07-23T06:41:06;6.35;;;5.72;;
5730;SDS011;2890;51.950;7.668;2022-07-23T06:43:33;5.70;;;4.90;;
5730;SDS011;2890;51.950;7.668;2022-07-23T06:46:00;8.23;;;5.68;;
5730;SDS011;2890;51.950;7.668;2022-07-23T06:48:27;7.40;;;4.90;;
5730;SDS011;2890;51.950;7.668;2022-07-23T06:50:55;4.57;;;4.18;;
5730;SDS011;2890;51.950;7.668;2022-07-23T06:53:22;4.35;;;3.95;;
5730;SDS011;2890;51.950;7.668;2022-07-23T06:55:49;5.32;;;3.95;;
5730;SDS011;2890;51.950;7.668;2022-07-23T06:58:16;6.93;;;4.82;;
5730;SDS011;2890;51.950;7.668;2022-07-23T07:00:44;7.00;;;4.07;;
5730;SDS011;2890;51.950;7.668;2022-07-23T07:03:11;7.30;;;3.83;;
5730;SDS011;2890;51.950;7.668;2022-07-23T07:05:37;5.80;;;4.05;;
5730;SDS011;2890;51.950;7.668;2022-07-23T07:08:06;4.88;;;4.22;;
5730;SDS011;2890;51.950;7.668;2022-07-23T07:10:33;7.20;;;4.50;;
5730;SDS011;2890;51.950;7.668;2022-07-23T07:13:00;5.20;;;4.22;;
5730;SDS011;2890;51.950;7.668;2022-07-23T07:15:27;5.22;;;3.95;;
5730;SDS011;2890;51.950;7.668;2022-07-23T07:17:53;4.63;;;4.03;;
5730;SDS011;2890;51.950;7.668;2022-07-23T07:20:20;7.00;;;3.83;;
5730;SDS011;2890;51.950;7.668;2022-07-23T07:22:48;4.25;;;3.65;;
5730;SDS011;2890;51.950;7.668;2022-07-23T07:25:16;6.78;;;4.00;;
5730;SDS011;2890;51.950;7.668;2022-07-23T07:27:43;3.80;;;3.40;;
5730;SDS011;2890;51.950;7.668;2022-07-23T07:30:10;4.80;;;3.50;;
5730;SDS011;2890;51.950;7.668;2022-07-23T07:32:37;4.93;;;3.10;;
5730;SDS011;2890;51.950;7.668;2022-07-23T07:35:05;5.93;;;3.08;;
5730;SDS011;2890;51.950;7.668;2022-07-23T07:37:32;5.68;;;3.33;;
5730;SDS011;2890;51.950;7.668;2022-07-23T07:39:59;4.88;;;3.10;;
5730;SDS011;2890;51.950;7.668;2022-07-23T07:42:27;2.90;;;2.60;;
5730;SDS011;2890;51.950;7.668;2022-07-23T07:44:54;4.88;;;3.05;;
5730;SDS011;2890;51.950;7.668;2022-07-23T07:47:21;3.95;;;3.13;;
5730;SDS011;2890;51.950;7.668;2022-07-23T07:49:47;4.28;;;2.70;;
5730;SDS011;2890;51.950;7.668;2022-07-23T07:52:14;5.95;;;2.88;;
5730;SDS011;2890;51.950;7.668;2022-07-23T07:54:41;4.65;;;3.15;;
5730;SDS011;2890;51.950;7.668;2022-07-23T07:57:07;4.30;;;2.67;;
5730;SDS011;2890;51.950;7.668;2022-07-23T07:59:36;5.75;;;2.85;;
5730;SDS011;2890;51.950;7.668;2022-07-23T08:02:02;3.97;;;2.60;;
5730;SDS011;2890;51.950;7.668;2022-07-23T08:04:29;4.53;;;2.80;;
5730;SDS011;2890;51.950;7.668;2022-07-23T08:06:56;3.75;;;2.50;;
5730;SDS011;2890;51.950;7.668;2022-07-23T08:09:23;4.00;;;2.67;;
5730;SDS011;2890;51.950;7.668;2022-07-23T08:11:49;3.80;;;2.65;;
5730;SDS011;2890;51.950;7.668;2022-07-23T08:14:16;2.92;;;2.63;;
5730;SDS011;2890;51.950;7.668;2022-07-23T08:16:45;3.70;;;3.00;;
5730;SDS011;2890;51.950;7.668;2022-07-23T08:19:11;3.90;;;3.10;;
5730;SDS011;2890;51.950;7.668;2022-07-23T08:21:38;5.90;;;2.95;;
5730;SDS011;2890;51.950;7.668;2022-07-23T08:24:05;5.03;;;3.35;;
5730;SDS011;2890;51.950;7.668;2022-07-23T08:26:32;4.50;;;3.20;;
5730;SDS011;2890;51.950;7.668;2022-07-23T08:28:59;4.97;;;2.58;;
5730;SDS011;2890;51.950;7.668;2022-07-23T08:31:25;6.30;;;5.68;;
5730;SDS011;2890;51.950;7.668;2022-07-23T08:33:53;6.40;;;4.63;;
5730;SDS011;2890;51.950;7.668;2022-07-23T08:36:21;6.07;;;5.47;;
5730;SDS011;2890;51.950;7.668;2022-07-23T08:38:48;5.47;;;2.85;;
5730;SDS011;2890;51.950;7.668;2022-07-23T08:41:15;5.10;;;2.65;;
5730;SDS011;2890;51.950;7.668;2022-07-23T08:43:42;2.78;;;2.33;;
5730;SDS011;2890;51.950;7.668;2022-07-23T08:46:10;4.18;;;3.17;;
5730;SDS011;2890;51.950;7.668;2022-07-23T08:48:39;5.30;;;3.13;;
5730;SDS011;2890;51.950;7.668;2022-07-23T08:51:07;3.08;;;2.80;;
5730;SDS011;2890;51.950;7.668;2022-07-23T08:53:35;4.22;;;2.42;;
5730;SDS011;2890;51.950;7.668;2022-07-23T08:56:04;3.83;;;2.90;;
5730;SDS011;2890;51.950;7.668;2022-07-23T08:58:31;3.90;;;3.03;;
5730;SDS011;2890;51.950;7.668;2022-07-23T09:00:58;3.67;;;2.72;;
5730;SDS011;2890;51.950;7.668;2022-07-23T09:03:25;2.70;;;2.10;;
5730;SDS011;2890;51.950;7.668;2022-07-23T09:05:53;4.13;;;2.30;;
5730;SDS011;2890;51.950;7.668;2022-07-23T09:08:23;4.40;;;2.50;;
5730;SDS011;2890;51.950;7.668;2022-07-23T09:10:52;2.78;;;2.35;;
5730;SDS011;2890;51.950;7.668;2022-07-23T09:13:25;3.33;;;2.08;;
5730;SDS011;2890;51.950;7.668;2022-07-23T09:15:54;4.30;;;2.38;;
5730;SDS011;2890;51.950;7.668;2022-07-23T09:18:32;3.35;;;2.17;;
5730;SDS011;2890;51.950;7.668;2022-07-23T09:21:10;4.13;;;2.40;;
5730;SDS011;2890;51.950;7.668;2022-07-23T09:23:47;3.47;;;2.65;;
5730;SDS011;2890;51.950;7.668;2022-07-23T09:26:19;6.25;;;4.25;;
5730;SDS011;2890;51.950;7.668;2022-07-23T09:28:52;2.88;;;2.53;;
5730;SDS011;2890;51.950;7.668;2022-07-23T09:31:20;2.03;;;1.92;;
5730;SDS011;2890;51.950;7.668;2022-07-23T09:33:48;2.00;;;1.80;;
5730;SDS011;2890;51.950;7.668;2022-07-23T09:36:15;3.75;;;2.20;;
5730;SDS011;2890;51.950;7.668;2022-07-23T09:38:53;2.28;;;1.77;;
5730;SDS011;2890;51.950;7.668;2022-07-23T09:41:20;2.95;;;2.65;;
5730;SDS011;2890;51.950;7.668;2022-07-23T09:43:50;3.38;;;1.90;;
5730;SDS011;2890;51.950;7.668;2022-07-23T09:46:21;3.53;;;2.40;;
5730;SDS011;2890;51.950;7.668;2022-07-23T09:48:49;4.32;;;2.10;;
5730;SDS011;2890;51.950;7.668;2022-07-23T09:51:17;4.22;;;2.13;;
5730;SDS011;2890;51.950;7.668;2022-07-23T09:53:48;5.03;;;2.55;;
5730;SDS011;2890;51.950;7.668;2022-07-23T09:56:16;5.32;;;2.70;;
5730;SDS011;2890;51.950;7.668;2022-07-23T09:58:45;2.28;;;2.08;;
5730;SDS011;2890;51.950;7.668;2022-07-23T10:01:17;3.45;;;1.90;;
5730;SDS011;2890;51.950;7.668;2022-07-23T10:03:46;3.15;;;1.70;;
5730;SDS011;2890;51.950;7.668;2022-07-23T10:06:13;4.63;;;1.95;;
5730;SDS011;2890;51.950;7.668;2022-07-23T10:08:41;1.60;;;1.50;;
5730;SDS011;2890;51.950;7.668;2022-07-23T10:11:10;1.65;;;1.40;;
5730;SDS011;2890;51.950;7.668;2022-07-23T10:13:40;2.70;;;1.40;;
5730;SDS011;2890;51.950;7.668;2022-07-23T10:16:22;2.80;;;1.77;;
5730;SDS011;2890;51.950;7.668;2022-07-23T10:18:49;1.50;;;1.40;;
5730;SDS011;2890;51.950;7.668;2022-07-23T10:21:18;1.85;;;1.60;;
5730;SDS011;2890;51.950;7.668;2022-07-23T10:23:51;2.10;;;1.42;;
5730;SDS011;2890;51.950;7.668;2022-07-23T10:26:31;1.65;;;1.55;;
5730;SDS011;2890;51.950;7.668;2022-07-23T10:29:09;1.63;;;1.50;;
5730;SDS011;2890;51.950;7.668;2022-07-23T10:31:46;1.98;;;1.30;;
5730;SDS011;2890;51.950;7.668;2022-07-23T10:34:19;2.00;;;1.80;;
5730;SDS011;2890;51.950;7.668;2022-07-23T10:36:52;2.95;;;1.75;;
5730;SDS011;2890;51.950;7.668;2022-07-23T10:39:24;2.63;;;1.63;;
5730;SDS011;2890;51.950;7.668;2022-07-23T10:42:01;2.08;;;1.52;;
5730;SDS011;2890;51.950;7.668;2022-07-23T10:44:38;1.40;;;1.30;;
5730;SDS011;2890;51.950;7.668;2022-07-23T10:47:07;1.98;;;1.52;;
5730;SDS011;2890;51.950;7.668;2022-07-23T10:52:42;3.75;;;1.65;;
5730;SDS011;2890;51.950;7.668;2022-07-23T10:55:46;1.90;;;1.45;;
5730;SDS011;2890;51.950;7.668;2022-07-23T10:58:21;2.25;;;1.35;;
5730;SDS011;2890;51.950;7.668;2022-07-23T11:00:50;2.15;;;1.73;;
5730;SDS011;2890;51.950;7.668;2022-07-23T11:03:31;2.05;;;1.40;;
5730;SDS011;2890;51.950;7.668;2022-07-23T11:06:01;1.48;;;1.38;;
5730;SDS011;2890;51.950;7.668;2022-07-23T11:08:28;1.65;;;1.30;;
5730;SDS011;2890;51.950;7.668;2022-07-23T11:10:56;2.55;;;1.60;;
5730;SDS011;2890;51.950;7.668;2022-07-23T11:13:45;3.38;;;1.40;;
5730;SDS011;2890;51.950;7.668;2022-07-23T11:16:23;2.95;;;1.58;;
5730;SDS011;2890;51.950;7.668;2022-07-23T11:18:55;2.08;;;1.20;;
5730;SDS011;2890;51.950;7.668;2022-07-23T11:21:42;2.20;;;1.60;;
5730;SDS011;2890;51.950;7.668;2022-07-23T11:24:14;2.58;;;1.48;;
5730;SDS011;2890;51.950;7.668;2022-07-23T11:26:45;1.33;;;1.23;;
5730;SDS011;2890;51.950;7.668;2022-07-23T11:32:37;3.55;;;1.50;;
5730;SDS011;2890;51.950;7.668;2022-07-23T11:35:20;1.65;;;1.30;;
5730;SDS011;2890;51.950;7.668;2022-07-23T11:37:49;1.23;;;1.10;;
5730;SDS011;2890;51.950;7.668;2022-07-23T11:40:19;3.15;;;1.20;;
5730;SDS011;2890;51.950;7.668;2022-07-23T11:42:53;2.28;;;1.20;;
5730;SDS011;2890;51.950;7.668;2022-07-23T11:45:21;4.15;;;1.33;;
5730;SDS011;2890;51.950;7.668;2022-07-23T11:47:51;1.35;;;1.15;;
5730;SDS011;2890;51.950;7.668;2022-07-23T11:50:17;2.42;;;1.30;;
5730;SDS011;2890;51.950;7.668;2022-07-23T11:52:44;2.42;;;1.30;;
5730;SDS011;2890;51.950;7.668;2022-07-23T11:55:11;3.42;;;1.60;;
5730;SDS011;2890;51.950;7.668;2022-07-23T11:57:41;2.88;;;1.40;;
5730;SDS011;2890;51.950;7.668;2022-07-23T12:00:09;2.00;;;1.38;;
5730;SDS011;2890;51.950;7.668;2022-07-23T12:02:38;1.30;;;1.20;;
5730;SDS011;2890;51.950;7.668;2022-07-23T12:05:07;2.35;;;1.40;;
5730;SDS011;2890;51.950;7.668;2022-07-23T12:07:37;2.67;;;1.33;;
5730;SDS011;2890;51.950;7.668;2022-07-23T12:10:09;3.08;;;1.45;;
5730;SDS011;2890;51.950;7.668;2022-07-23T12:12:38;1.58;;;1.30;;
5730;SDS011;2890;51.950;7.668;2022-07-23T12:15:07;2.97;;;1.52;;
5730;SDS011;2890;51.950;7.668;2022-07-23T12:17:35;1.60;;;1.30;;
5730;SDS011;2890;51.950;7.668;2022-07-23T12:20:04;2.88;;;1.30;;
5730;SDS011;2890;51.950;7.668;2022-07-23T12:22:35;1.38;;;1.20;;
5730;SDS011;2890;51.950;7.668;2022-07-23T12:25:05;4.75;;;1.38;;
5730;SDS011;2890;51.950;7.668;2022-07-23T12:27:33;4.20;;;1.40;;
5730;SDS011;2890;51.950;7.668;2022-07-23T12:30:17;1.45;;;1.10;;
5730;SDS011;2890;51.950;7.668;2022-07-23T12:32:50;1.75;;;1.30;;
5730;SDS011;2890;51.950;7.668;2022-07-23T12:35:19;1.75;;;1.27;;
5730;SDS011;2890;51.950;7.668;2022-07-23T12:37:48;2.55;;;1.50;;
5730;SDS011;2890;51.950;7.668;2022-07-23T12:40:18;3.97;;;1.38;;
5730;SDS011;2890;51.950;7.668;2022-07-23T12:42:50;1.70;;;1.17;;
5730;SDS011;2890;51.950;7.668;2022-07-23T12:45:18;1.42;;;1.30;;
5730;SDS011;2890;51.950;7.668;2022-07-23T12:50:36;2.50;;;1.42;;
5730;SDS011;2890;51.950;7.668;2022-07-23T12:53:11;1.35;;;1.02;;
5730;SDS011;2890;51.950;7.668;2022-07-23T12:55:41;3.42;;;1.38;;
5730;SDS011;2890;51.950;7.668;2022-07-23T12:58:12;1.45;;;1.35;;
5730;SDS011;2890;51.950;7.668;2022-07-23T13:00:51;1.40;;;1.30;;
5730;SDS011;2890;51.950;7.668;2022-07-23T13:03:30;2.25;;;1.20;;
5730;SDS011;2890;51.950;7.668;2022-07-23T13:06:03;2.15;;;1.20;;
5730;SDS011;2890;51.950;7.668;2022-07-23T13:08:32;1.42;;;1.33;;
5730;SDS011;2890;51.950;7.668;2022-07-23T13:11:00;1.88;;;1.58;;
5730;SDS011;2890;51.950;7.668;2022-07-23T13:13:28;2.88;;;1.35;;
5730;SDS011;2890;51.950;7.668;2022-07-23T13:15:56;1.15;;;1.00;;
5730;SDS011;2890;51.950;7.668;2022-07-23T13:18:24;1.40;;;1.30;;
5730;SDS011;2890;51.950;7.668;2022-07-23T13:20:52;2.03;;;1.50;;
5730;SDS011;2890;51.950;7.668;2022-07-23T13:23:20;2.42;;;1.23;;
5730;SDS011;2890;51.950;7.668;2022-07-23T13:25:48;1.55;;;1.13;;
5730;SDS011;2890;51.950;7.668;2022-07-23T13:28:16;2.30;;;1.58;;
5730;SDS011;2890;51.950;7.668;2022-07-23T13:30:44;1.40;;;1.30;;
5730;SDS011;2890;51.950;7.668;2022-07-23T13:33:12;2.88;;;1.30;;
5730;SDS011;2890;51.950;7.668;2022-07-23T13:35:39;2.40;;;1.55;;
5730;SDS011;2890;51.950;7.668;2022-07-23T13:38:06;1.63;;;1.50;;
5730;SDS011;2890;51.950;7.668;2022-07-23T13:40:35;1.85;;;1.10;;
5730;SDS011;2890;51.950;7.668;2022-07-23T13:43:03;2.85;;;1.70;;
5730;SDS011;2890;51.950;7.668;2022-07-23T13:45:31;2.70;;;1.63;;
5730;SDS011;2890;51.950;7.668;2022-07-23T13:47:57;3.53;;;1.60;;
5730;SDS011;2890;51.950;7.668;2022-07-23T13:50:24;2.53;;;1.73;;
5730;SDS011;2890;51.950;7.668;2022-07-23T13:52:51;1.58;;;1.48;;
5730;SDS011;2890;51.950;7.668;2022-07-23T13:55:18;1.92;;;1.35;;
5730;SDS011;2890;51.950;7.668;2022-07-23T13:57:46;1.83;;;1.55;;
5730;SDS011;2890;51.950;7.668;2022-07-23T14:00:13;2.92;;;1.35;;
5730;SDS011;2890;51.950;7.668;2022-07-23T14:02:40;3.08;;;1.80;;
5730;SDS011;2890;51.950;7.668;2022-07-23T14:05:07;2.25;;;1.38;;
5730;SDS011;2890;51.950;7.668;2022-07-23T14:07:36;3.17;;;1.88;;
5730;SDS011;2890;51.950;7.668;2022-07-23T14:10:03;2.15;;;1.73;;
5730;SDS011;2890;51.950;7.668;2022-07-23T14:12:31;3.47;;;1.65;;
5730;SDS011;2890;51.950;7.668;2022-07-23T14:14:59;3.85;;;1.60;;
5730;SDS011;2890;51.950;7.668;2022-07-23T14:17:26;2.78;;;1.35;;
5730;SDS011;2890;51.950;7.668;2022-07-23T14:19:53;2.55;;;1.60;;
5730;SDS011;2890;51.950;7.668;2022-07-23T14:22:20;2.83;;;1.60;;
5730;SDS011;2890;51.950;7.668;2022-07-23T14:24:47;2.15;;;1.70;;
5730;SDS011;2890;51.950;7.668;2022-07-23T14:27:13;1.92;;;1.40;;
5730;SDS011;2890;51.950;7.668;2022-07-23T14:29:40;2.13;;;1.77;;
5730;SDS011;2890;51.950;7.668;2022-07-23T14:32:08;4.40;;;1.77;;
5730;SDS011;2890;51.950;7.668;2022-07-23T14:34:35;3.33;;;1.83;;
5730;SDS011;2890;51.950;7.668;2022-07-23T14:37:02;2.50;;;1.73;;
5730;SDS011;2890;51.950;7.668;2022-07-23T14:39:29;2.60;;;1.50;;
5730;SDS011;2890;51.950;7.668;2022-07-23T14:41:56;1.63;;;1.30;;
5730;SDS011;2890;51.950;7.668;2022-07-23T14:44:22;2.95;;;1.80;;
5730;SDS011;2890;51.950;7.668;2022-07-23T14:46:49;2.72;;;1.63;;
5730;SDS011;2890;51.950;7.668;2022-07-23T14:49:17;2.10;;;1.80;;
5730;SDS011;2890;51.950;7.668;2022-07-23T14:51:44;2.45;;;1.55;;
5730;SDS011;2890;51.950;7.668;2022-07-23T14:54:11;2.78;;;1.80;;
5730;SDS011;2890;51.950;7.668;2022-07-23T14:56:38;2.83;;;1.60;;
5730;SDS011;2890;51.950;7.668;2022-07-23T14:59:05;1.55;;;1.45;;
5730;SDS011;2890;51.950;7.668;2022-07-23T15:01:32;4.18;;;1.98;;
5730;SDS011;2890;51.950;7.668;2022-07-23T15:04:00;2.72;;;1.50;;
5730;SDS011;2890;51.950;7.668;2022-07-23T15:06:28;2.00;;;1.80;;
5730;SDS011;2890;51.950;7.668;2022-07-23T15:08:55;1.75;;;1.60;;
5730;SDS011;2890;51.950;7.668;2022-07-23T15:11:21;3.80;;;1.60;;
5730;SDS011;2890;51.950;7.668;2022-07-23T15:13:48;2.17;;;1.77;;
5730;SDS011;2890;51.950;7.668;2022-07-23T15:16:15;1.70;;;1.60;;
5730;SDS011;2890;51.950;7.668;2022-07-23T15:18:42;2.10;;;1.88;;
5730;SDS011;2890;51.950;7.668;2022-07-23T15:21:09;2.95;;;2.00;;
5730;SDS011;2890;51.950;7.668;2022-07-23T15:23:37;2.63;;;1.90;;